Gaschem Phoenix — ELUO6 — position and weather

sailwx.info

Track history (hours):
 
Tides and Currents Weather Stations Pressure Air Temp Water Temp Dewpoint Dewpoint Depression Visibility Wind Speed Wind Dir Waves Ship Positions

Gaschem Phoenix

Last reported at 2018-Apr-20 20:44 UTC. Time now 2018-Apr-21 23:05 UTC.
Position N 33°19' E 128°11'.

Length 100 m; draft 5.9 m.

Type: Ship. MMSI: 636090235.

Date/timePositionNaut miles runAvg speedWind from/ knotsBaromVisibWave heightAir tempDewpointWater temp
2018-Apr-20 20:44N 33°19' E 128°11'2 7.9
2018-Apr-20 20:28N 33°20' E 128°13'13 8.7
2018-Apr-20 19:02N 33°25' E 128°27'1 9.0
2018-Apr-20 18:53N 33°26' E 128°28'12 8.8
2018-Apr-20 17:34N 33°31' E 128°40'2 8.9
2018-Apr-20 17:20N 33°32' E 128°43'3 9.1
2018-Apr-20 16:58N 33°34' E 128°46'12 9.2
2018-Apr-20 15:39N 33°39' E 128°59'2 8.7
2018-Apr-20 15:25N 33°40' E 129°01'19 9.6
2018-Apr-20 13:24N 33°49' E 129°22'410.3
2018-Apr-20 12:57N 33°51' E 129°27'510.6
2018-Apr-20 12:29N 33°53' E 129°32'610.9
2018-Apr-20 11:58N 33°56' E 129°38'510.7
2018-Apr-20 11:30N 33°58' E 129°43'610.1
2018-Apr-20 10:56N 34°01' E 129°50'4 9.9
2018-Apr-20 10:30N 34°01' E 129°55'5 9.9
2018-Apr-20 10:00N 34°01' E 130°01'5 9.8
2018-Apr-20 09:30N 34°01' E 130°07'5 9.8
2018-Apr-20 09:00N 34°02' E 130°13'5 9.6
2018-Apr-20 08:30N 34°02' E 130°18'5 9.6
2018-Apr-20 08:00N 34°03' E 130°24'5 9.3
2018-Apr-20 07:30N 34°03' E 130°30'4 9.0
2018-Apr-20 07:00N 34°03' E 130°35'5 9.0
2018-Apr-20 06:30N 34°04' E 130°41'4 8.6
2018-Apr-20 06:00N 34°03' E 130°46'4 8.7
2018-Apr-20 05:30N 34°01' E 130°50'4 8.4
2018-Apr-20 05:00N 33°57' E 130°52'4 7.2
2018-Apr-20 04:30N 33°56' E 130°56'510.7
2018-Apr-20 04:00N 33°58' E 131°02'510.5
2018-Apr-20 03:30N 33°55' E 131°06'5 9.6
2018-Apr-20 03:00N 33°52' E 131°11'5 9.3
2018-Apr-20 02:30N 33°51' E 131°17'5 9.1
2018-Apr-20 02:00N 33°52' E 131°22'5 9.8
2018-Apr-20 01:30N 33°53' E 131°28'5 9.8
2018-Apr-20 01:00N 33°54' E 131°34'5 9.9
2018-Apr-20 00:30N 33°55' E 131°39'5 9.2
2018-Apr-19 23:59N 33°57' E 131°44'4 8.8
2018-Apr-19 23:30N 34°01' E 131°47'2 0.1
2018-Apr-19 08:25N 34°02' E 131°49'3 0.6
2018-Apr-19 04:05N 34°00' E 131°47'0 0.2
2018-Apr-19 03:58N 34°00' E 131°47'0 0.1
2018-Apr-19 03:04N 34°00' E 131°47'0 0.0
2018-Apr-19 02:46N 34°00' E 131°47'0 0.0
2018-Apr-19 02:28N 34°00' E 131°47'0 0.0
2018-Apr-19 01:58N 34°00' E 131°47'0 0.0
2018-Apr-19 01:27N 34°00' E 131°47'1 0.1
2018-Apr-18 14:11N 33°59' E 131°45'1 8.8
2018-Apr-18 14:01N 33°58' E 131°45'611.9
2018-Apr-18 13:29N 33°53' E 131°50'611.8
2018-Apr-18 13:00N 33°48' E 131°53'711.5
2018-Apr-18 12:23N 33°44' E 131°60'511.6
2018-Apr-18 11:56N 33°42' E 132°06'611.0
2018-Apr-18 11:25N 33°43' E 132°13'511.4
2018-Apr-18 10:56N 33°45' E 132°19'611.3
2018-Apr-18 10:26N 33°47' E 132°25'511.4
2018-Apr-18 10:00N 33°49' E 132°30'711.4
2018-Apr-18 09:25N 33°54' E 132°36'512.1
2018-Apr-18 09:00N 33°57' E 132°41'7 0.2
2018-Apr-16 18:21N 34°02' E 132°47'3 9.0
2018-Apr-16 17:59N 33°60' E 132°45'4 8.9
2018-Apr-16 17:30N 33°56' E 132°41'7 9.5
2018-Apr-16 16:45N 33°52' E 132°35'310.3
2018-Apr-16 16:31N 33°50' E 132°33'510.2
2018-Apr-16 16:00N 33°47' E 132°28'2610.7
2018-Apr-16 13:33N 33°43' E 131°57'111.3
2018-Apr-16 13:30N 33°43' E 131°56'611.7
2018-Apr-16 12:58N 33°45' E 131°49'511.4
2018-Apr-16 12:30N 33°46' E 131°42'611.2
2018-Apr-16 12:00N 33°47' E 131°36'611.3
2018-Apr-16 11:30N 33°48' E 131°29'611.1
2018-Apr-16 11:00N 33°49' E 131°23'510.8
2018-Apr-16 10:30N 33°51' E 131°16'510.5
2018-Apr-16 10:00N 33°52' E 131°10'510.6
2018-Apr-16 09:30N 33°55' E 131°05'5 9.8
2018-Apr-16 09:00N 33°58' E 131°01'4 7.8
2018-Apr-16 08:30N 33°56' E 130°57'3 6.2
2018-Apr-16 08:00N 33°55' E 130°53'4 8.7
2018-Apr-16 07:30N 33°59' E 130°53'4 7.4
2018-Apr-16 07:00N 34°02' E 130°49'3 7.0
2018-Apr-16 06:30N 34°03' E 130°45'4 7.6
2018-Apr-16 06:00N 34°03' E 130°41'4 7.7
2018-Apr-16 05:30N 34°03' E 130°36'4 7.9
2018-Apr-16 05:00N 34°03' E 130°31'4 7.9
2018-Apr-16 04:30N 34°03' E 130°27'4 7.7
2018-Apr-16 04:00N 34°03' E 130°22'4 8.4
2018-Apr-16 03:30N 34°02' E 130°17'4 8.6
2018-Apr-16 03:00N 34°02' E 130°12'4 8.8
2018-Apr-16 02:30N 34°02' E 130°07'4 8.9
2018-Apr-16 02:00N 34°01' E 130°01'  
Track history (hours):
 
Tides and Currents Weather Stations Pressure Air Temp Water Temp Dewpoint Dewpoint Depression Visibility Wind Speed Wind Dir Waves Ship Positions

Gaschem Phoenix

Last reported at 2018-Apr-20 20:44 UTC. Time now 2018-Apr-21 23:05 UTC.
Position N 33°19' E 128°11'.

Length 100 m; draft 5.9 m.

Type: Ship. MMSI: 636090235.

Date/timePositionNaut miles runAvg speedWind from/ knotsBaromVisibWave heightAir tempDewpointWater temp
2018-Apr-20 20:44N 33°19' E 128°11'2 7.9
2018-Apr-20 20:28N 33°20' E 128°13'13 8.7
2018-Apr-20 19:02N 33°25' E 128°27'1 9.0
2018-Apr-20 18:53N 33°26' E 128°28'12 8.8
2018-Apr-20 17:34N 33°31' E 128°40'2 8.9
2018-Apr-20 17:20N 33°32' E 128°43'3 9.1
2018-Apr-20 16:58N 33°34' E 128°46'12 9.2
2018-Apr-20 15:39N 33°39' E 128°59'2 8.7
2018-Apr-20 15:25N 33°40' E 129°01'19 9.6
2018-Apr-20 13:24N 33°49' E 129°22'410.3
2018-Apr-20 12:57N 33°51' E 129°27'510.6
2018-Apr-20 12:29N 33°53' E 129°32'610.9
2018-Apr-20 11:58N 33°56' E 129°38'510.7
2018-Apr-20 11:30N 33°58' E 129°43'610.1
2018-Apr-20 10:56N 34°01' E 129°50'4 9.9
2018-Apr-20 10:30N 34°01' E 129°55'5 9.9
2018-Apr-20 10:00N 34°01' E 130°01'5 9.8
2018-Apr-20 09:30N 34°01' E 130°07'5 9.8
2018-Apr-20 09:00N 34°02' E 130°13'5 9.6
2018-Apr-20 08:30N 34°02' E 130°18'5 9.6
2018-Apr-20 08:00N 34°03' E 130°24'5 9.3
2018-Apr-20 07:30N 34°03' E 130°30'4 9.0
2018-Apr-20 07:00N 34°03' E 130°35'5 9.0
2018-Apr-20 06:30N 34°04' E 130°41'4 8.6
2018-Apr-20 06:00N 34°03' E 130°46'4 8.7
2018-Apr-20 05:30N 34°01' E 130°50'4 8.4
2018-Apr-20 05:00N 33°57' E 130°52'4 7.2
2018-Apr-20 04:30N 33°56' E 130°56'510.7
2018-Apr-20 04:00N 33°58' E 131°02'510.5
2018-Apr-20 03:30N 33°55' E 131°06'5 9.6
2018-Apr-20 03:00N 33°52' E 131°11'5 9.3
2018-Apr-20 02:30N 33°51' E 131°17'5 9.1
2018-Apr-20 02:00N 33°52' E 131°22'5 9.8
2018-Apr-20 01:30N 33°53' E 131°28'5 9.8
2018-Apr-20 01:00N 33°54' E 131°34'5 9.9
2018-Apr-20 00:30N 33°55' E 131°39'5 9.2
2018-Apr-19 23:59N 33°57' E 131°44'4 8.8
2018-Apr-19 23:30N 34°01' E 131°47'2 0.1
2018-Apr-19 08:25N 34°02' E 131°49'3 0.6
2018-Apr-19 04:05N 34°00' E 131°47'0 0.2
2018-Apr-19 03:58N 34°00' E 131°47'0 0.1
2018-Apr-19 03:04N 34°00' E 131°47'0 0.0
2018-Apr-19 02:46N 34°00' E 131°47'0 0.0
2018-Apr-19 02:28N 34°00' E 131°47'0 0.0
2018-Apr-19 01:58N 34°00' E 131°47'0 0.0
2018-Apr-19 01:27N 34°00' E 131°47'1 0.1
2018-Apr-18 14:11N 33°59' E 131°45'1 8.8
2018-Apr-18 14:01N 33°58' E 131°45'611.9
2018-Apr-18 13:29N 33°53' E 131°50'611.8
2018-Apr-18 13:00N 33°48' E 131°53'711.5
2018-Apr-18 12:23N 33°44' E 131°60'511.6
2018-Apr-18 11:56N 33°42' E 132°06'611.0
2018-Apr-18 11:25N 33°43' E 132°13'511.4
2018-Apr-18 10:56N 33°45' E 132°19'611.3
2018-Apr-18 10:26N 33°47' E 132°25'511.4
2018-Apr-18 10:00N 33°49' E 132°30'711.4
2018-Apr-18 09:25N 33°54' E 132°36'512.1
2018-Apr-18 09:00N 33°57' E 132°41'7 0.2
2018-Apr-16 18:21N 34°02' E 132°47'3 9.0
2018-Apr-16 17:59N 33°60' E 132°45'4 8.9
2018-Apr-16 17:30N 33°56' E 132°41'7 9.5
2018-Apr-16 16:45N 33°52' E 132°35'310.3
2018-Apr-16 16:31N 33°50' E 132°33'510.2
2018-Apr-16 16:00N 33°47' E 132°28'2610.7
2018-Apr-16 13:33N 33°43' E 131°57'111.3
2018-Apr-16 13:30N 33°43' E 131°56'611.7
2018-Apr-16 12:58N 33°45' E 131°49'511.4
2018-Apr-16 12:30N 33°46' E 131°42'611.2
2018-Apr-16 12:00N 33°47' E 131°36'611.3
2018-Apr-16 11:30N 33°48' E 131°29'611.1
2018-Apr-16 11:00N 33°49' E 131°23'510.8
2018-Apr-16 10:30N 33°51' E 131°16'510.5
2018-Apr-16 10:00N 33°52' E 131°10'510.6
2018-Apr-16 09:30N 33°55' E 131°05'5 9.8
2018-Apr-16 09:00N 33°58' E 131°01'4 7.8
2018-Apr-16 08:30N 33°56' E 130°57'3 6.2
2018-Apr-16 08:00N 33°55' E 130°53'4 8.7
2018-Apr-16 07:30N 33°59' E 130°53'4 7.4
2018-Apr-16 07:00N 34°02' E 130°49'3 7.0
2018-Apr-16 06:30N 34°03' E 130°45'4 7.6
2018-Apr-16 06:00N 34°03' E 130°41'4 7.7
2018-Apr-16 05:30N 34°03' E 130°36'4 7.9
2018-Apr-16 05:00N 34°03' E 130°31'4 7.9
2018-Apr-16 04:30N 34°03' E 130°27'4 7.7
2018-Apr-16 04:00N 34°03' E 130°22'4 8.4
2018-Apr-16 03:30N 34°02' E 130°17'4 8.6
2018-Apr-16 03:00N 34°02' E 130°12'4 8.8
2018-Apr-16 02:30N 34°02' E 130°07'4 8.9
2018-Apr-16 02:00N 34°01' E 130°01'  

Dump ship's entire track history